Time;durP1;ratioP1;P1;durP2;ratioP2;P2;SDS_P1;SDS_P2;PMS_P1;PMS_P2;Temp;Humidity;BMP_temperature;BMP_pressure;BME280_temperature;BME280_humidity;BME280_pressure;Samples;Min_cycle;Max_cycle;Signal;HPM_P1;HPM_P2
2022/06/16 00:00:37;;;;;;;3.83;0.77;;;;;;;21.29;55.07;101478.72;7387327;19;20003;-77
2022/06/16 00:03:07;;;;;;;4.47;1.00;;;;;;;21.26;54.88;101489.84;7382844;19;20010;-78
2022/06/16 00:05:36;;;;;;;2.90;1.02;;;;;;;21.23;54.86;101474.19;7388971;19;20019;-78
2022/06/16 00:08:05;;;;;;;5.80;1.10;;;;;;;21.18;55.06;101478.53;7384041;19;20014;-79
2022/06/16 00:10:33;;;;;;;4.95;1.00;;;;;;;21.13;55.28;101476.41;7385942;19;20331;-79
2022/06/16 00:13:00;;;;;;;2.78;0.95;;;;;;;21.09;55.56;101467.16;7385844;19;20011;-78
2022/06/16 00:15:28;;;;;;;4.13;0.98;;;;;;;21.07;55.49;101468.41;7385018;19;20017;-78
2022/06/16 00:17:57;;;;;;;3.63;1.10;;;;;;;21.06;56.05;101475.59;7382503;19;20013;-78
2022/06/16 00:20:24;;;;;;;5.63;1.30;;;;;;;21.02;56.18;101478.91;7387455;19;20130;-78
2022/06/16 00:22:51;;;;;;;8.40;1.88;;;;;;;21.00;58.89;101481.78;7384948;19;20002;-78
2022/06/16 00:25:18;;;;;;;6.25;2.60;;;;;;;21.01;59.43;101472.72;7383469;19;20623;-78
2022/06/16 00:27:45;;;;;;;8.27;3.05;;;;;;;21.01;59.54;101471.91;7385049;19;20441;-79
2022/06/16 00:30:13;;;;;;;7.57;3.10;;;;;;;20.99;60.30;101474.78;7386099;19;20117;-78
2022/06/16 00:32:41;;;;;;;6.60;2.97;;;;;;;20.95;60.09;101470.03;7385214;19;20443;-77
2022/06/16 00:35:10;;;;;;;9.20;2.25;;;;;;;20.89;60.47;101477.03;7385396;19;20070;-79
2022/06/16 00:37:37;;;;;;;5.40;2.60;;;;;;;20.87;61.17;101479.94;7384731;19;20011;-78
2022/06/16 00:40:05;;;;;;;6.25;2.38;;;;;;;20.85;60.98;101476.63;7387424;19;20386;-79
2022/06/16 00:42:31;;;;;;;9.25;2.92;;;;;;;20.83;61.09;101478.66;7383461;19;20010;-78
2022/06/16 00:44:59;;;;;;;7.75;2.85;;;;;;;20.77;61.11;101476.81;7385471;19;20006;-78
2022/06/16 00:47:29;;;;;;;8.55;2.55;;;;;;;20.70;61.55;101481.34;7383987;19;20030;-78
2022/06/16 00:50:00;;;;;;;7.70;2.83;;;;;;;20.63;61.93;101475.13;7384028;19;20503;-78
2022/06/16 00:52:32;;;;;;;5.53;2.28;;;;;;;20.58;62.01;101476.75;7384280;19;20254;-78
2022/06/16 00:55:12;;;;;;;11.88;3.05;;;;;;;20.53;62.28;101480.03;7385023;19;20036;-79
2022/06/16 00:57:46;;;;;;;6.43;2.42;;;;;;;20.48;62.13;101479.81;7384278;19;20074;-78
2022/06/16 01:03:01;;;;;;;7.88;2.97;;;;;;;20.39;62.58;101484.53;7382175;19;20013;-78
2022/06/16 01:05:28;;;;;;;7.38;2.70;;;;;;;20.37;62.68;101483.91;7383882;19;20003;-78
2022/06/16 01:07:56;;;;;;;8.88;3.05;;;;;;;20.36;62.73;101494.81;7384496;19;20508;-79
2022/06/16 01:10:28;;;;;;;4.97;2.67;;;;;;;20.32;62.79;101496.22;7387189;19;20480;-78
2022/06/16 01:16:18;;;;;;;5.47;2.55;;;;;;;20.21;63.48;101488.78;7385165;19;20526;-77
2022/06/16 01:18:55;;;;;;;7.03;2.50;;;;;;;20.21;63.33;101491.44;7382107;19;20029;-79
2022/06/16 01:21:31;;;;;;;6.57;2.40;;;;;;;20.22;63.68;101504.59;7380263;19;20015;-78
2022/06/16 01:24:23;;;;;;;6.45;2.40;;;;;;;20.20;63.38;101509.31;7384473;19;20074;-79
2022/06/16 01:26:59;;;;;;;8.32;2.70;;;;;;;20.19;63.22;101509.50;7382103;19;20335;-77
2022/06/16 01:29:46;;;;;;;7.40;3.20;;;;;;;20.15;63.58;101511.78;7383431;19;20469;-79
2022/06/16 01:32:25;;;;;;;8.30;3.53;;;;;;;20.12;63.44;101511.31;7382130;19;20022;-79
2022/06/16 01:35:09;;;;;;;9.23;2.85;;;;;;;20.08;63.64;101517.06;7382990;19;20023;-79
2022/06/16 01:37:55;;;;;;;8.38;3.05;;;;;;;20.08;63.95;101527.75;7389901;19;20011;-78
2022/06/16 01:40:56;;;;;;;5.82;2.90;;;;;;;20.05;64.15;101524.66;7391476;19;20035;-78
2022/06/16 01:43:39;;;;;;;6.50;3.00;;;;;;;20.02;64.02;101525.88;7390862;19;20034;-77
2022/06/16 01:46:17;;;;;;;7.88;3.95;;;;;;;20.04;64.82;101533.72;7391469;19;20034;-79
2022/06/16 01:48:50;;;;;;;7.45;3.20;;;;;;;20.04;64.18;101534.53;7389237;19;20034;-78
2022/06/16 01:51:28;;;;;;;8.43;3.42;;;;;;;20.03;63.98;101540.06;7391094;19;20015;-79
2022/06/16 01:54:34;;;;;;;7.90;3.63;;;;;;;20.03;63.96;101545.41;7390992;19;20006;-79
2022/06/16 01:57:11;;;;;;;8.20;3.55;;;;;;;20.00;63.85;101551.16;7390266;19;20077;-79
2022/06/16 01:59:59;;;;;;;9.65;3.50;;;;;;;19.99;64.05;101553.00;7390796;19;20031;-78
2022/06/16 02:02:31;;;;;;;12.32;3.55;;;;;;;20.01;64.01;101563.50;7388880;19;20035;-78
2022/06/16 02:05:07;;;;;;;11.38;3.70;;;;;;;20.02;63.68;101571.31;7382136;19;20014;-78
2022/06/16 02:07:41;;;;;;;5.63;2.95;;;;;;;19.96;63.68;101564.06;7388766;19;20038;-78
2022/06/16 02:10:17;;;;;;;6.40;3.80;;;;;;;19.94;63.64;101568.81;7391085;19;20010;-79
2022/06/16 02:12:56;;;;;;;7.63;3.45;;;;;;;19.90;64.34;101567.53;7388476;19;20007;-78
2022/06/16 02:15:46;;;;;;;10.23;4.13;;;;;;;19.90;65.46;101577.41;7388149;19;20019;-78
2022/06/16 02:18:17;;;;;;;9.27;3.20;;;;;;;19.90;64.36;101580.91;7387403;19;20070;-79
2022/06/16 02:20:46;;;;;;;6.45;3.50;;;;;;;19.90;64.37;101578.22;7390389;19;20323;-78
2022/06/16 02:23:14;;;;;;;8.70;3.40;;;;;;;19.86;64.25;101573.47;7389422;19;20014;-78
2022/06/16 02:25:43;;;;;;;6.35;2.97;;;;;;;19.81;64.55;101576.72;7388672;19;20054;-79
2022/06/16 02:28:12;;;;;;;5.43;2.60;;;;;;;19.80;64.53;101571.59;7386561;19;20011;-78
2022/06/16 02:31:27;;;;;;;10.30;3.60;;;;;;;19.76;64.38;101579.13;7387161;19;20104;-79
2022/06/16 02:34:35;;;;;;;7.03;3.55;;;;;;;19.68;64.41;101565.94;7382299;19;20152;-79
2022/06/16 02:37:16;;;;;;;6.50;3.13;;;;;;;19.62;64.20;101577.38;7388294;19;20003;-78
2022/06/16 02:40:24;;;;;;;6.15;3.30;;;;;;;19.58;64.52;101579.63;7387272;19;20542;-79
2022/06/16 02:43:12;;;;;;;5.57;3.22;;;;;;;19.57;64.57;101577.97;7385902;19;20479;-78
2022/06/16 02:46:36;;;;;;;8.15;3.30;;;;;;;19.55;64.57;101576.53;7388232;19;20034;-78
2022/06/16 02:49:27;;;;;;;8.25;3.92;;;;;;;19.51;66.20;101584.06;7381660;19;20380;-78
2022/06/16 02:52:14;;;;;;;6.85;3.15;;;;;;;19.48;65.39;101587.16;7383592;19;20006;-78
2022/06/16 02:54:54;;;;;;;8.20;3.90;;;;;;;19.46;65.23;101583.81;7386245;19;20353;-78
2022/06/16 02:57:31;;;;;;;5.72;2.80;;;;;;;19.46;65.49;101585.66;7387947;19;20010;-78
2022/06/16 03:00:02;;;;;;;5.63;2.97;;;;;;;19.44;65.17;101593.03;7387392;19;20015;-78
2022/06/16 03:02:30;;;;;;;6.95;3.15;;;;;;;19.43;65.07;101589.53;7388313;19;20014;-79
2022/06/16 03:05:00;;;;;;;7.70;3.50;;;;;;;19.44;65.63;101599.22;7385158;19;20082;-78
2022/06/16 03:07:28;;;;;;;7.80;3.30;;;;;;;19.47;65.46;101598.00;7385168;19;20022;-78
2022/06/16 03:09:55;;;;;;;7.47;3.45;;;;;;;19.47;65.05;101604.19;7389517;19;20414;-78
2022/06/16 03:12:22;;;;;;;5.45;3.10;;;;;;;19.47;65.18;101604.19;7388494;19;20019;-77
2022/06/16 03:14:49;;;;;;;6.35;3.53;;;;;;;19.44;65.20;101609.06;7388792;19;20021;-77
2022/06/16 03:17:17;;;;;;;10.23;3.30;;;;;;;19.37;65.42;101611.66;7389632;19;20041;-78
2022/06/16 03:19:44;;;;;;;12.15;4.00;;;;;;;19.33;65.70;101609.56;7388132;19;20190;-78
2022/06/16 03:22:11;;;;;;;7.72;3.83;;;;;;;19.29;65.65;101609.13;7388930;19;20010;-79
2022/06/16 03:24:39;;;;;;;9.02;3.80;;;;;;;19.26;65.85;101616.66;7385982;19;20354;-78
2022/06/16 03:27:07;;;;;;;9.77;3.65;;;;;;;19.21;65.98;101612.72;7387412;19;20443;-79
2022/06/16 03:29:34;;;;;;;8.00;3.90;;;;;;;19.21;65.97;101615.38;7387821;19;20014;-79
2022/06/16 03:32:01;;;;;;;6.65;3.17;;;;;;;19.18;65.89;101607.78;7387003;19;20022;-78
2022/06/16 03:34:29;;;;;;;10.30;3.72;;;;;;;19.18;66.28;101612.28;7383028;19;20021;-78
2022/06/16 03:36:56;;;;;;;8.52;6.60;;;;;;;19.23;68.72;101616.03;7384901;19;20009;-77
2022/06/16 03:39:23;;;;;;;5.78;3.17;;;;;;;19.22;67.89;101614.38;7387960;19;20013;-77
2022/06/16 03:41:50;;;;;;;7.80;3.78;;;;;;;19.19;66.40;101617.44;7384546;19;20117;-78
2022/06/16 03:44:17;;;;;;;6.43;3.17;;;;;;;19.21;66.39;101619.91;7386658;19;20038;-78
2022/06/16 03:46:45;;;;;;;9.90;3.33;;;;;;;19.18;66.29;101615.78;7383078;19;20494;-78
2022/06/16 03:49:12;;;;;;;9.18;3.92;;;;;;;19.18;66.51;101617.63;7386853;19;20094;-78
2022/06/16 03:51:39;;;;;;;7.55;3.22;;;;;;;19.18;66.22;101615.78;7384932;19;20039;-78
2022/06/16 03:54:05;;;;;;;10.32;4.88;;;;;;;19.21;68.25;101617.22;7385757;19;20011;-78
2022/06/16 03:56:32;;;;;;;5.28;3.08;;;;;;;19.22;66.92;101617.06;7387965;19;20010;-78
2022/06/16 03:58:59;;;;;;;8.30;3.03;;;;;;;19.25;66.60;101618.50;7388212;19;20082;-77
2022/06/16 04:01:26;;;;;;;9.15;3.28;;;;;;;19.23;66.47;101613.38;7385298;19;20082;-77
2022/06/16 04:04:02;;;;;;;8.15;3.35;;;;;;;19.20;66.74;101615.56;7381850;19;20006;-78
2022/06/16 04:06:32;;;;;;;8.18;2.90;;;;;;;19.18;67.32;101612.28;7382380;19;20315;-77
2022/06/16 04:09:00;;;;;;;8.05;2.85;;;;;;;19.17;67.21;101623.97;7385101;19;20025;-77
2022/06/16 04:11:27;;;;;;;8.95;3.78;;;;;;;19.22;69.04;101624.22;7383153;19;20006;-78
2022/06/16 04:14:00;;;;;;;7.55;2.90;;;;;;;19.24;67.62;101624.88;7386157;19;20074;-77
2022/06/16 04:16:29;;;;;;;6.32;2.42;;;;;;;19.23;66.91;101629.38;7384394;19;20039;-78
2022/06/16 04:18:56;;;;;;;4.28;2.22;;;;;;;19.22;67.51;101627.72;7385657;19;20002;-79
2022/06/16 04:21:23;;;;;;;5.28;2.40;;;;;;;19.22;67.40;101626.91;7386719;19;20010;-78
2022/06/16 04:23:50;;;;;;;4.07;2.28;;;;;;;19.20;67.77;101628.91;7384307;19;20029;-78
2022/06/16 04:26:17;;;;;;;6.63;1.90;;;;;;;19.19;67.91;101629.97;7384150;19;20010;-78
2022/06/16 04:28:44;;;;;;;4.68;2.10;;;;;;;19.19;70.13;101633.44;7386884;19;20032;-78
2022/06/16 04:31:11;;;;;;;3.97;2.20;;;;;;;19.17;68.96;101630.13;7384209;19;20018;-78
2022/06/16 04:33:38;;;;;;;3.90;1.88;;;;;;;19.10;68.49;101639.91;7383981;19;20014;-79
2022/06/16 04:36:06;;;;;;;6.88;1.83;;;;;;;19.08;68.88;101638.44;7384293;19;20347;-78
2022/06/16 04:38:33;;;;;;;6.35;1.92;;;;;;;19.06;68.73;101641.28;7383531;19;20503;-78
2022/06/16 04:41:00;;;;;;;5.53;2.10;;;;;;;19.06;68.85;101641.28;7382708;19;20088;-77
2022/06/16 04:43:27;;;;;;;4.80;1.58;;;;;;;19.07;68.99;101636.78;7384743;19;20013;-77
2022/06/16 04:45:55;;;;;;;5.78;2.15;;;;;;;19.10;69.26;101647.91;7384166;19;20015;-77
2022/06/16 04:48:22;;;;;;;8.20;1.75;;;;;;;19.14;69.26;101645.72;7382853;19;20250;-78
2022/06/16 04:50:49;;;;;;;3.53;2.05;;;;;;;19.14;69.24;101641.19;7385675;19;20014;-80
2022/06/16 04:53:16;;;;;;;5.82;2.00;;;;;;;19.15;69.15;101642.81;7383004;19;20026;-77
2022/06/16 04:55:43;;;;;;;4.72;2.13;;;;;;;19.16;68.92;101641.81;7383373;19;20421;-77
2022/06/16 04:58:10;;;;;;;5.43;2.50;;;;;;;19.17;68.77;101646.16;7384479;19;20006;-77
2022/06/16 05:00:37;;;;;;;6.32;2.63;;;;;;;19.22;69.11;101645.56;7385158;19;20087;-77
2022/06/16 05:03:11;;;;;;;5.45;2.60;;;;;;;19.26;68.86;101646.00;7380534;19;20015;-78
2022/06/16 05:05:38;;;;;;;9.52;2.50;;;;;;;19.31;68.58;101649.78;7381458;19;20007;-77
2022/06/16 05:08:05;;;;;;;6.45;2.67;;;;;;;19.31;68.93;101651.59;7383130;19;20019;-78
2022/06/16 05:10:32;;;;;;;7.07;3.00;;;;;;;19.33;68.39;101660.28;7383829;19;20038;-78
2022/06/16 05:12:59;;;;;;;11.00;3.50;;;;;;;19.34;68.52;101661.94;7390968;19;20009;-78
2022/06/16 05:15:26;;;;;;;7.10;2.83;;;;;;;19.36;68.92;101662.53;7389953;19;20480;-78
2022/06/16 05:17:53;;;;;;;5.97;3.08;;;;;;;19.37;68.53;101666.88;7390852;19;20078;-79
2022/06/16 05:20:20;;;;;;;7.28;3.80;;;;;;;19.39;68.63;101673.69;7391076;19;20010;-78
2022/06/16 05:22:47;;;;;;;5.60;3.08;;;;;;;19.45;68.99;101680.97;7389372;19;20503;-78
2022/06/16 05:25:14;;;;;;;6.32;3.15;;;;;;;19.46;68.51;101687.13;7390471;19;20011;-78
2022/06/16 05:27:41;;;;;;;8.82;3.70;;;;;;;19.48;68.37;101691.28;7389937;19;20013;-78
2022/06/16 05:30:08;;;;;;;7.65;3.13;;;;;;;19.51;68.15;101696.22;7392062;19;20028;-78
2022/06/16 05:32:36;;;;;;;8.20;3.75;;;;;;;19.53;68.04;101704.06;7389707;19;20070;-77
2022/06/16 05:35:04;;;;;;;10.50;3.65;;;;;;;19.55;67.24;101710.03;7387996;19;20077;-78
2022/06/16 05:37:32;;;;;;;6.63;3.55;;;;;;;19.55;66.93;101713.53;7391567;19;20121;-78
2022/06/16 05:39:58;;;;;;;9.85;3.55;;;;;;;19.54;67.31;101717.22;7389728;19;20011;-79
2022/06/16 05:42:25;;;;;;;7.78;3.63;;;;;;;19.53;67.40;101712.06;7391342;19;20495;-77
2022/06/16 05:44:52;;;;;;;7.82;4.03;;;;;;;19.53;67.64;101720.06;7389882;19;20051;-78
2022/06/16 05:47:19;;;;;;;8.65;3.47;;;;;;;19.51;68.18;101722.09;7390085;19;20014;-78
2022/06/16 05:49:46;;;;;;;5.80;3.40;;;;;;;19.49;68.29;101721.47;7389107;19;20567;-79
2022/06/16 05:52:20;;;;;;;12.05;4.80;;;;;;;19.51;68.75;101730.09;7389312;19;20006;-79
2022/06/16 05:54:48;;;;;;;11.82;3.80;;;;;;;19.53;69.30;101722.75;7387505;19;20018;-78
2022/06/16 05:57:15;;;;;;;8.43;3.63;;;;;;;19.53;69.03;101728.91;7392128;19;20082;-79
2022/06/16 05:59:42;;;;;;;10.77;4.05;;;;;;;19.53;68.78;101726.25;7392723;19;20047;-79
2022/06/16 06:02:19;;;;;;;11.05;3.50;;;;;;;19.61;69.33;101725.28;7390257;19;20031;-79
2022/06/16 06:04:48;;;;;;;8.80;3.67;;;;;;;19.69;69.31;101724.34;7389266;19;20014;-78
2022/06/16 06:07:16;;;;;;;6.82;3.70;;;;;;;19.75;68.79;101723.59;7386251;19;20041;-79
2022/06/16 06:17:51;;;;;;;9.15;3.97;;;;;;;19.93;66.09;101722.09;7387053;19;20591;-79
2022/06/16 06:20:18;;;;;;;10.13;4.60;;;;;;;19.91;65.74;101729.47;7392554;19;20486;-77
2022/06/16 06:22:45;;;;;;;7.63;4.53;;;;;;;19.92;65.69;101722.28;7387411;19;20025;-78
2022/06/16 06:25:13;;;;;;;12.75;4.47;;;;;;;19.92;66.04;101725.78;7389820;19;20020;-78
2022/06/16 06:27:43;;;;;;;9.75;4.28;;;;;;;19.94;65.98;101722.94;7389828;19;20090;-78
2022/06/16 06:30:14;;;;;;;10.98;4.30;;;;;;;19.98;66.06;101722.34;7391733;19;20007;-78
2022/06/16 06:32:41;;;;;;;11.38;4.63;;;;;;;20.05;65.74;101725.09;7388636;19;20042;-78
2022/06/16 06:35:08;;;;;;;14.02;4.43;;;;;;;20.06;64.51;101716.06;7386374;19;20014;-79
2022/06/16 06:37:36;;;;;;;15.23;6.18;;;;;;;20.07;64.97;101718.53;7386669;19;20111;-80
2022/06/16 06:40:04;;;;;;;16.10;7.57;;;;;;;20.11;64.26;101705.63;7388602;19;20077;-76
2022/06/16 06:42:31;;;;;;;22.25;11.75;;;;;;;20.12;64.02;101709.91;7391157;19;20522;-78
2022/06/16 06:44:58;;;;;;;14.05;6.57;;;;;;;20.14;64.19;101712.41;7388196;19;20521;-78
2022/06/16 06:47:29;;;;;;;11.98;4.68;;;;;;;20.14;63.54;101717.75;7386792;19;20086;-78
2022/06/16 06:49:57;;;;;;;13.37;5.20;;;;;;;20.15;63.83;101724.75;7386206;19;20021;-81
2022/06/16 06:52:25;;;;;;;8.75;3.97;;;;;;;20.16;63.37;101723.75;7387327;19;20021;-79
2022/06/16 06:54:56;;;;;;;10.05;4.00;;;;;;;20.17;63.60;101722.69;7392050;19;20074;-79
2022/06/16 06:57:35;;;;;;;8.52;3.95;;;;;;;20.22;64.40;101731.78;7388968;19;20011;-80
2022/06/16 07:00:12;;;;;;;8.85;3.97;;;;;;;20.27;63.91;101731.22;7391600;19;20489;-78
2022/06/16 07:02:39;;;;;;;8.52;4.25;;;;;;;20.33;64.03;101733.97;7389770;19;20132;-81
2022/06/16 07:05:06;;;;;;;7.38;4.32;;;;;;;20.39;63.89;101743.06;7388846;19;20013;-77
2022/06/16 07:08:29;;;;;;;10.02;4.00;;;;;;;20.44;63.85;101737.97;7385988;19;20011;-77
2022/06/16 07:10:56;;;;;;;9.07;3.50;;;;;;;20.48;62.76;101749.91;7385905;19;20377;-78
2022/06/16 07:13:24;;;;;;;10.25;3.90;;;;;;;20.49;62.34;101736.38;7386388;19;20086;-78
2022/06/16 07:15:51;;;;;;;8.85;3.83;;;;;;;20.54;62.60;101729.59;7388623;19;20502;-78
2022/06/16 07:18:18;;;;;;;17.35;10.98;;;;;;;20.65;69.56;101723.69;7384036;19;20367;-77
2022/06/16 07:20:47;;;;;;;10.18;4.75;;;;;;;20.76;72.65;101726.66;7386709;19;20471;-79
2022/06/16 07:23:15;;;;;;;11.05;5.03;;;;;;;20.79;69.93;101723.56;7384584;19;20093;-78
2022/06/16 07:25:42;;;;;;;12.93;5.00;;;;;;;20.81;64.24;101721.53;7385427;19;20007;-77
2022/06/16 07:28:09;;;;;;;9.80;4.53;;;;;;;20.84;62.16;101715.78;7385826;19;20025;-80
2022/06/16 07:30:36;;;;;;;11.43;4.78;;;;;;;20.89;62.59;101707.16;7388682;19;20083;-78
2022/06/16 07:33:03;;;;;;;9.10;4.13;;;;;;;20.90;61.17;101695.44;7383906;19;20330;-80
2022/06/16 07:35:30;;;;;;;7.78;4.18;;;;;;;21.00;60.38;101697.72;7386020;19;20049;-77
2022/06/16 07:37:57;;;;;;;10.40;4.47;;;;;;;21.09;60.28;101696.53;7384987;19;20102;-80
2022/06/16 07:40:24;;;;;;;9.57;4.65;;;;;;;21.26;62.28;101700.53;7386242;19;20073;-79
2022/06/16 07:42:56;;;;;;;13.85;6.93;;;;;;;21.63;61.19;101708.06;7385656;19;20075;-78
2022/06/16 07:45:24;;;;;;;8.35;3.65;;;;;;;22.24;59.77;101712.44;7387456;19;20380;-80
2022/06/16 07:47:55;;;;;;;8.18;3.80;;;;;;;22.63;56.34;101707.00;7383196;19;20015;-79
2022/06/16 07:50:22;;;;;;;12.88;4.25;;;;;;;22.79;56.29;101703.91;7385611;19;20015;-79
2022/06/16 07:52:49;;;;;;;9.90;3.72;;;;;;;22.78;55.82;101704.94;7386334;19;20368;-79
2022/06/16 07:55:18;;;;;;;11.57;4.25;;;;;;;22.71;55.61;101708.66;7386795;19;20115;-79
2022/06/16 07:57:47;;;;;;;14.65;5.10;;;;;;;22.61;58.93;101704.53;7387602;19;20006;-79
2022/06/16 08:00:22;;;;;;;7.93;4.40;;;;;;;22.49;57.47;101711.59;7386029;19;20037;-79
2022/06/16 08:02:50;;;;;;;9.77;4.70;;;;;;;22.39;57.21;101708.50;7385494;19;20002;-79
2022/06/16 08:05:22;;;;;;;8.88;4.10;;;;;;;22.30;57.46;101709.72;7384616;19;20026;-79
2022/06/16 08:07:49;;;;;;;6.00;3.55;;;;;;;22.27;58.36;101720.06;7387527;19;20313;-80
2022/06/16 08:10:22;;;;;;;14.18;4.40;;;;;;;22.26;58.38;101715.72;7385854;19;20320;-79
2022/06/16 08:12:48;;;;;;;8.93;3.75;;;;;;;22.26;58.10;101729.13;7384262;19;20547;-79
2022/06/16 08:15:16;;;;;;;9.20;3.78;;;;;;;22.27;58.83;101728.09;7386815;19;20105;-79
2022/06/16 08:17:46;;;;;;;7.03;3.45;;;;;;;22.27;58.53;101736.97;7383139;19;20444;-79
2022/06/16 08:20:14;;;;;;;9.85;4.05;;;;;;;22.29;57.42;101731.41;7387015;19;20011;-79
2022/06/16 08:22:42;;;;;;;9.00;3.80;;;;;;;22.29;57.49;101720.69;7386956;19;20070;-80
2022/06/16 08:25:13;;;;;;;9.93;3.80;;;;;;;22.33;58.13;101714.69;7387642;19;20031;-79
2022/06/16 08:27:42;;;;;;;11.40;4.10;;;;;;;22.36;57.93;101703.53;7387405;19;20044;-79
2022/06/16 08:30:13;;;;;;;9.52;4.35;;;;;;;22.45;57.57;101706.84;7384728;19;20006;-79
2022/06/16 08:32:41;;;;;;;9.93;3.85;;;;;;;22.54;57.37;101706.41;7385230;19;20027;-79
2022/06/16 08:35:08;;;;;;;8.85;3.55;;;;;;;22.65;57.05;101707.63;7384217;19;20098;-79
2022/06/16 08:37:35;;;;;;;11.38;3.90;;;;;;;22.72;56.36;101713.00;7384823;19;20010;-78
2022/06/16 08:40:04;;;;;;;11.85;4.35;;;;;;;22.78;55.29;101709.47;7384831;19;20033;-79
2022/06/16 08:42:46;;;;;;;12.77;3.83;;;;;;;22.79;55.81;101706.59;7385211;19;20010;-78
2022/06/16 08:45:22;;;;;;;9.32;3.17;;;;;;;22.84;54.54;101693.34;7385208;19;20492;-79
2022/06/16 08:48:01;;;;;;;8.85;3.22;;;;;;;22.85;53.95;101703.06;7384905;19;20486;-79
2022/06/16 08:50:59;;;;;;;7.18;2.70;;;;;;;22.88;53.73;101712.53;7386072;19;20019;-79
2022/06/16 08:53:52;;;;;;;8.85;3.20;;;;;;;22.92;53.81;101716.44;7384559;19;20014;-79
2022/06/16 08:56:58;;;;;;;7.45;2.92;;;;;;;22.96;53.22;101707.75;7386206;19;20041;-79
2022/06/16 08:59:37;;;;;;;8.90;2.95;;;;;;;22.99;53.36;101711.88;7388640;19;20073;-79
2022/06/16 09:02:08;;;;;;;5.07;2.13;;;;;;;22.99;52.12;101712.69;7387124;19;20381;-79
2022/06/16 09:04:42;;;;;;;7.57;2.60;;;;;;;23.03;52.47;101694.28;7384373;19;20011;-79
2022/06/16 09:08:00;;;;;;;8.88;2.42;;;;;;;23.09;52.89;101692.63;7385158;19;20818;-80
2022/06/16 09:10:44;;;;;;;7.68;2.38;;;;;;;23.10;52.78;101697.78;7380857;19;20078;-79
2022/06/16 09:13:14;;;;;;;5.10;2.05;;;;;;;23.14;52.05;101696.31;7382567;19;20015;-79
2022/06/16 09:16:02;;;;;;;6.72;1.88;;;;;;;23.23;51.83;101702.25;7387932;19;20391;-79
2022/06/16 09:18:31;;;;;;;3.70;1.40;;;;;;;23.29;51.30;101699.53;7383903;19;20455;-79
2022/06/16 09:21:17;;;;;;;5.15;1.90;;;;;;;23.34;50.19;101694.34;7383410;19;20010;-80
2022/06/16 09:23:59;;;;;;;6.68;2.08;;;;;;;23.41;50.68;101699.69;7385468;19;20011;-79
2022/06/16 09:26:30;;;;;;;;;;;;;;;23.48;49.92;101705.03;7383997;19;20035;-78
2022/06/16 09:29:05;;;;;;;4.53;1.50;;;;;;;23.56;49.58;101702.09;7386988;19;20181;-78
2022/06/16 09:31:40;;;;;;;9.02;1.73;;;;;;;23.68;49.73;101706.56;7385657;19;20074;-78
2022/06/16 09:34:16;;;;;;;4.07;1.45;;;;;;;23.77;48.57;101702.56;7375959;19;20010;-79
2022/06/16 09:36:49;;;;;;;5.55;0.80;;;;;;;23.83;47.33;101709.75;7386899;19;20019;-79
2022/06/16 09:39:23;;;;;;;6.60;1.95;;;;;;;23.88;46.83;101712.63;7389570;19;20011;-78
2022/06/16 09:42:33;;;;;;;2.85;0.95;;;;;;;23.90;45.62;101709.72;7384264;19;20247;-78
2022/06/16 09:45:45;;;;;;;5.32;0.88;;;;;;;23.94;46.57;101720.84;7383295;19;20004;-78
2022/06/16 09:48:37;;;;;;;4.97;1.00;;;;;;;24.01;47.13;101721.63;7382947;19;20054;-80
2022/06/16 09:51:11;;;;;;;4.32;1.05;;;;;;;24.09;47.40;101724.03;7384142;19;20086;-79
2022/06/16 09:53:46;;;;;;;7.82;1.08;;;;;;;24.16;47.98;101724.81;7382493;19;20563;-80
2022/06/16 09:56:50;;;;;;;8.80;1.60;;;;;;;24.23;47.78;101731.78;7387334;19;20531;-79
2022/06/16 09:59:27;;;;;;;5.07;1.20;;;;;;;24.32;47.42;101729.66;7393212;19;20110;-79
2022/06/16 10:02:03;;;;;;;5.00;1.15;;;;;;;24.40;45.56;101733.94;7390482;19;20122;-80
2022/06/16 10:04:30;;;;;;;6.15;1.00;;;;;;;24.44;45.09;101722.50;7392292;19;20010;-80
2022/06/16 10:07:19;;;;;;;2.10;0.60;;;;;;;24.53;43.63;101714.97;7358628;19;20086;-79
2022/06/16 10:09:52;;;;;;;6.32;1.40;;;;;;;24.56;43.19;101718.03;7380603;19;20093;-79
2022/06/16 10:12:22;;;;;;;1.70;0.55;;;;;;;24.64;42.34;101727.66;7390214;19;20067;-79
2022/06/16 10:15:13;;;;;;;5.70;0.75;;;;;;;24.75;42.18;101726.94;7385553;19;20432;-78
2022/06/16 10:17:44;;;;;;;1.15;0.50;;;;;;;24.83;41.80;101731.22;7386798;19;20014;-78
2022/06/16 10:20:16;;;;;;;3.30;1.00;;;;;;;24.89;41.84;101739.22;7390450;19;20508;-78
2022/06/16 10:22:48;;;;;;;3.03;0.75;;;;;;;24.94;41.75;101738.59;7387633;19;20102;-78
2022/06/16 10:25:23;;;;;;;3.10;0.60;;;;;;;24.98;41.72;101735.22;7390181;19;20078;-79
2022/06/16 10:27:56;;;;;;;5.65;0.68;;;;;;;25.06;40.24;101739.44;7386738;19;20082;-80
2022/06/16 10:30:27;;;;;;;4.63;0.50;;;;;;;25.16;40.47;101739.75;7388743;19;20392;-80
2022/06/16 10:32:59;;;;;;;6.35;0.60;;;;;;;25.24;39.90;101730.53;7389064;19;20074;-79
2022/06/16 10:35:26;;;;;;;3.03;0.50;;;;;;;25.29;38.78;101734.19;7386106;19;20034;-80
2022/06/16 10:37:54;;;;;;;2.17;0.50;;;;;;;25.35;39.14;101732.44;7388565;19;20114;-79
2022/06/16 10:40:32;;;;;;;5.45;0.95;;;;;;;25.38;38.21;101738.22;7387251;19;20010;-79
2022/06/16 10:43:19;;;;;;;2.22;0.50;;;;;;;25.39;37.63;101737.16;7389600;19;20013;-78
2022/06/16 10:46:08;;;;;;;2.78;0.60;;;;;;;25.40;37.67;101744.19;7391324;19;20103;-79
2022/06/16 10:48:37;;;;;;;2.90;0.63;;;;;;;25.40;38.56;101752.25;7387599;19;20055;-79
2022/06/16 10:51:12;;;;;;;3.58;0.60;;;;;;;25.44;39.25;101756.19;7387827;19;20010;-79
2022/06/16 10:53:42;;;;;;;4.55;0.70;;;;;;;25.46;39.11;101748.66;7389359;19;20029;-79
2022/06/16 10:56:16;;;;;;;1.83;0.50;;;;;;;25.51;39.54;101747.97;7388071;19;20037;-78
2022/06/16 10:58:48;;;;;;;3.83;0.70;;;;;;;25.57;39.76;101755.19;7387388;19;20467;-79
2022/06/16 11:01:25;;;;;;;7.68;0.50;;;;;;;25.65;40.09;101748.66;7354635;19;20113;-79
2022/06/16 11:04:20;;;;;;;2.17;0.40;;;;;;;25.71;39.02;101753.13;7381013;19;20018;-78
2022/06/16 11:06:54;;;;;;;3.17;0.50;;;;;;;25.75;38.08;101749.72;7382633;19;20003;-79
2022/06/16 11:09:25;;;;;;;1.83;0.45;;;;;;;25.76;38.55;101756.75;7380285;19;20018;-79
2022/06/16 11:11:57;;;;;;;4.82;0.82;;;;;;;25.79;37.75;101755.50;7387738;19;20041;-79
2022/06/16 11:14:29;;;;;;;;;;;;;;;25.84;37.47;101755.63;7385238;19;20015;-79
2022/06/16 11:17:16;;;;;;;1.98;0.40;;;;;;;25.81;36.26;101747.97;7385080;19;20345;-79
2022/06/16 11:19:48;;;;;;;2.75;0.40;;;;;;;25.81;36.60;101750.69;7386193;19;20015;-79
2022/06/16 11:22:41;;;;;;;1.85;0.50;;;;;;;25.82;36.83;101736.16;7384221;19;20043;-78
2022/06/16 11:25:23;;;;;;;3.67;0.85;;;;;;;25.77;37.35;101753.03;7386487;19;20010;-79
2022/06/16 11:28:12;;;;;;;3.05;0.70;;;;;;;25.80;38.43;101749.84;7384093;19;20015;-78
2022/06/16 11:31:01;;;;;;;5.68;0.40;;;;;;;25.86;37.11;101748.94;7386740;19;20007;-78
2022/06/16 11:34:08;;;;;;;1.25;0.40;;;;;;;25.88;37.49;101744.13;7386100;19;20538;-79
2022/06/16 11:36:45;;;;;;;2.78;0.57;;;;;;;25.91;38.21;101748.25;7382663;19;20014;-79
2022/06/16 11:39:30;;;;;;;2.95;0.70;;;;;;;26.01;38.76;101755.78;7386291;19;20024;-78
2022/06/16 11:41:59;;;;;;;1.65;0.50;;;;;;;26.10;38.70;101762.47;7385637;19;20022;-79
2022/06/16 11:44:45;;;;;;;1.83;0.50;;;;;;;26.17;37.64;101763.19;7387557;19;20031;-79
2022/06/16 11:47:18;;;;;;;1.92;0.55;;;;;;;26.22;37.91;101753.38;7385105;19;20006;-80
2022/06/16 11:50:07;;;;;;;2.25;0.50;;;;;;;26.25;37.79;101761.00;7383765;19;20325;-80
2022/06/16 11:53:04;;;;;;;3.75;0.55;;;;;;;26.27;37.97;101755.34;7389354;19;20104;-79
2022/06/16 11:55:50;;;;;;;1.75;0.43;;;;;;;26.27;37.63;101756.19;7384255;19;20011;-78
2022/06/16 11:59:08;;;;;;;3.28;0.50;;;;;;;26.27;38.66;101761.59;7386646;19;20515;-78
2022/06/16 12:01:57;;;;;;;4.15;0.65;;;;;;;26.32;39.22;101750.09;7379652;19;20014;-78
2022/06/16 12:04:38;;;;;;;2.80;0.50;;;;;;;26.38;40.31;101752.66;7383759;19;20022;-79
2022/06/16 12:07:35;;;;;;;3.00;0.60;;;;;;;26.38;39.51;101774.28;7383070;19;20066;-79
2022/06/16 12:10:28;;;;;;;1.25;0.70;;;;;;;26.37;39.48;101769.91;7382194;19;20039;-80